Time;durP1;ratioP1;P1;durP2;ratioP2;P2;SDS_P1;SDS_P2;PMS_P1;PMS_P2;Temp;Humidity;BMP_temperature;BMP_pressure;BME280_temperature;BME280_humidity;BME280_pressure;Samples;Min_cycle;Max_cycle;Signal;HPM_P1;HPM_P2
2021/04/23 00:01:18;;;;;;;11.15;7.63;;;5.00;99.90;;;;;;4864733;29;20065;-76
2021/04/23 00:03:51;;;;;;;9.77;7.18;;;5.00;99.90;;;;;;4864718;29;20037;-75
2021/04/23 00:06:32;;;;;;;9.80;6.22;;;5.00;99.90;;;;;;4865093;29;20049;-76
2021/04/23 00:09:19;;;;;;;10.60;6.78;;;5.00;99.90;;;;;;4864879;29;20101;-75
2021/04/23 00:11:49;;;;;;;10.98;7.97;;;5.10;99.90;;;;;;4864911;29;20081;-76
2021/04/23 00:14:17;;;;;;;10.38;6.55;;;4.80;99.90;;;;;;4864464;29;20046;-76
2021/04/23 00:16:44;;;;;;;8.15;5.45;;;4.80;99.90;;;;;;4864587;29;20207;-76
2021/04/23 00:19:13;;;;;;;10.10;6.95;;;4.90;99.90;;;;;;4862960;29;20065;-75
2021/04/23 00:21:41;;;;;;;6.97;5.63;;;4.90;99.90;;;;;;4864585;29;20041;-76
2021/04/23 00:24:07;;;;;;;7.35;5.50;;;4.90;99.90;;;;;;4864066;29;20513;-75
2021/04/23 00:26:34;;;;;;;8.15;5.43;;;4.90;99.90;;;;;;4863932;29;20498;-75
2021/04/23 00:29:00;;;;;;;9.70;5.57;;;4.90;99.90;;;;;;4864225;29;20041;-75
2021/04/23 00:31:26;;;;;;;7.82;5.88;;;4.80;99.90;;;;;;4864355;29;20049;-75
2021/04/23 00:33:52;;;;;;;8.18;5.97;;;4.80;99.90;;;;;;4864271;29;20041;-75
2021/04/23 00:36:18;;;;;;;8.38;5.55;;;4.70;99.90;;;;;;4864377;29;20049;-75
2021/04/23 00:38:45;;;;;;;5.80;4.78;;;4.60;99.90;;;;;;4864333;29;20045;-75
2021/04/23 00:41:13;;;;;;;10.00;5.18;;;4.70;99.90;;;;;;4863863;29;20049;-76
2021/04/23 00:43:44;;;;;;;6.45;4.68;;;4.70;99.90;;;;;;4863982;29;20060;-75
2021/04/23 00:46:15;;;;;;;7.38;5.07;;;4.50;99.90;;;;;;4864238;29;20041;-76
2021/04/23 00:48:48;;;;;;;6.57;4.97;;;4.40;99.90;;;;;;4864191;29;20134;-75
2021/04/23 00:51:23;;;;;;;7.22;5.05;;;4.50;99.90;;;;;;4864428;29;20151;-76
2021/04/23 00:53:51;;;;;;;6.45;4.78;;;4.50;99.90;;;;;;4863903;29;20057;-76
2021/04/23 00:56:22;;;;;;;6.82;4.88;;;4.50;99.90;;;;;;4863857;29;20033;-75
2021/04/23 00:58:49;;;;;;;4.50;4.10;;;4.50;99.90;;;;;;4864294;29;20071;-75
2021/04/23 01:01:27;;;;;;;5.78;4.55;;;4.50;99.90;;;;;;4863505;29;20126;-75
2021/04/23 01:03:53;;;;;;;7.43;4.93;;;4.50;99.90;;;;;;4863707;29;20037;-75
2021/04/23 01:06:23;;;;;;;6.78;4.70;;;4.50;99.90;;;;;;4863649;29;20059;-75
2021/04/23 01:08:50;;;;;;;5.47;4.78;;;4.50;99.90;;;;;;4863885;29;20126;-75
2021/04/23 01:11:18;;;;;;;5.28;4.63;;;4.30;99.90;;;;;;4863620;29;20053;-76
2021/04/23 01:13:44;;;;;;;6.95;4.70;;;4.30;99.90;;;;;;4863423;29;20049;-75
2021/04/23 01:16:17;;;;;;;6.03;4.90;;;4.20;99.90;;;;;;4863580;29;20055;-75
2021/04/23 01:18:43;;;;;;;7.03;5.28;;;4.20;99.90;;;;;;4863188;29;20041;-75
2021/04/23 01:21:17;;;;;;;7.35;5.40;;;4.30;99.90;;;;;;4863316;29;20053;-75
2021/04/23 01:23:45;;;;;;;5.00;4.47;;;4.30;99.90;;;;;;4863780;29;20486;-75
2021/04/23 01:26:14;;;;;;;10.20;5.43;;;4.30;99.90;;;;;;4863370;29;20049;-75
2021/04/23 01:28:41;;;;;;;7.03;5.43;;;4.30;99.90;;;;;;4862895;29;20121;-75
2021/04/23 01:31:09;;;;;;;8.35;5.63;;;4.30;99.90;;;;;;4863233;29;20049;-75
2021/04/23 01:33:37;;;;;;;6.53;5.60;;;4.30;99.90;;;;;;4862938;29;20045;-75
2021/04/23 01:36:05;;;;;;;5.32;4.47;;;4.30;99.90;;;;;;4863084;29;20077;-75
2021/04/23 01:38:30;;;;;;;8.20;5.38;;;4.20;99.90;;;;;;4862648;29;20037;-75
2021/04/23 01:40:56;;;;;;;8.23;5.20;;;4.20;99.90;;;;;;4863099;29;20383;-75
2021/04/23 01:43:22;;;;;;;6.75;5.18;;;4.30;99.90;;;;;;4862643;29;20046;-76
2021/04/23 01:45:48;;;;;;;6.13;5.20;;;4.30;99.90;;;;;;4862842;29;20541;-75
2021/04/23 01:48:17;;;;;;;5.40;4.90;;;4.20;99.90;;;;;;4862857;29;20042;-75
2021/04/23 01:50:44;;;;;;;7.07;5.30;;;4.20;99.90;;;;;;4863318;29;20045;-75
2021/04/23 01:53:10;;;;;;;6.70;5.30;;;4.10;99.90;;;;;;4862937;29;20037;-75
2021/04/23 01:55:37;;;;;;;5.85;5.07;;;4.10;99.90;;;;;;4863115;29;20045;-75
2021/04/23 01:58:03;;;;;;;7.63;6.30;;;4.10;99.90;;;;;;4862650;29;20420;-75
2021/04/23 02:00:37;;;;;;;8.85;5.78;;;4.10;99.90;;;;;;4862292;29;20154;-75
2021/04/23 02:03:06;;;;;;;6.22;5.10;;;4.00;99.90;;;;;;4862039;29;20045;-75
2021/04/23 02:05:32;;;;;;;6.38;5.18;;;4.00;99.90;;;;;;4862818;29;20049;-76
2021/04/23 02:07:58;;;;;;;5.47;4.60;;;4.00;99.90;;;;;;4862266;29;20041;-75
2021/04/23 02:10:32;;;;;;;5.32;4.57;;;4.00;99.90;;;;;;4862550;29;20045;-76
2021/04/23 02:12:59;;;;;;;9.38;4.75;;;4.00;99.90;;;;;;4862123;29;20048;-76
2021/04/23 02:15:27;;;;;;;4.80;4.30;;;3.90;99.90;;;;;;4861748;29;20049;-76
2021/04/23 02:17:54;;;;;;;5.40;4.88;;;3.90;99.90;;;;;;4861829;29;20041;-75
2021/04/23 02:20:24;;;;;;;5.53;4.85;;;3.90;99.90;;;;;;4862218;29;20045;-76
2021/04/23 02:22:51;;;;;;;6.70;4.50;;;3.80;99.90;;;;;;4861931;29;20084;-75
2021/04/23 02:25:19;;;;;;;7.97;5.38;;;3.80;99.90;;;;;;4862085;29;20497;-76
2021/04/23 02:27:45;;;;;;;6.07;4.78;;;3.90;99.90;;;;;;4861902;29;20590;-76
2021/04/23 02:30:18;;;;;;;7.32;4.88;;;3.90;99.90;;;;;;4861977;29;20109;-75
2021/04/23 02:32:44;;;;;;;7.38;5.10;;;3.70;99.90;;;;;;4861888;29;20037;-75
2021/04/23 02:35:18;;;;;;;6.28;4.75;;;3.60;99.90;;;;;;4861887;29;20050;-75
2021/04/23 02:37:44;;;;;;;8.95;4.88;;;3.60;99.90;;;;;;4861887;29;20037;-75
2021/04/23 02:40:14;;;;;;;6.80;5.55;;;3.70;99.90;;;;;;4862340;29;20041;-75
2021/04/23 02:42:41;;;;;;;5.78;4.97;;;3.80;99.90;;;;;;4862081;29;20132;-76
2021/04/23 02:45:11;;;;;;;6.55;4.85;;;3.80;99.90;;;;;;4861609;29;20045;-76
2021/04/23 02:47:37;;;;;;;5.93;4.40;;;3.70;99.90;;;;;;4861712;29;20041;-76
2021/04/23 02:50:06;;;;;;;8.63;5.65;;;3.70;99.90;;;;;;4860347;29;20049;-75
2021/04/23 02:52:32;;;;;;;7.80;5.15;;;3.50;99.90;;;;;;4861554;29;20050;-76
2021/04/23 02:54:57;;;;;;;5.53;4.95;;;3.50;99.90;;;;;;4861423;29;20041;-75
2021/04/23 02:57:23;;;;;;;6.75;5.00;;;3.60;99.90;;;;;;4861332;29;20052;-75
2021/04/23 02:59:49;;;;;;;7.03;5.78;;;3.60;99.90;;;;;;4861728;29;20053;-76
2021/04/23 03:02:16;;;;;;;9.52;6.25;;;3.60;99.90;;;;;;4833238;29;833613;-75
2021/04/23 03:04:42;;;;;;;7.03;4.72;;;3.60;99.90;;;;;;4862374;29;20057;-75
2021/04/23 03:07:08;;;;;;;8.32;5.05;;;3.60;99.90;;;;;;4861709;29;20529;-75
2021/04/23 03:09:34;;;;;;;5.68;5.07;;;3.50;99.90;;;;;;4861911;29;20042;-75
2021/04/23 03:12:00;;;;;;;6.07;5.05;;;3.50;99.90;;;;;;4861955;29;20045;-75
2021/04/23 03:14:26;;;;;;;5.55;4.72;;;3.60;99.90;;;;;;4861751;29;20042;-75
2021/04/23 03:16:51;;;;;;;5.75;4.85;;;3.50;99.90;;;;;;4861885;29;20041;-75
2021/04/23 03:19:20;;;;;;;6.47;4.45;;;3.50;99.90;;;;;;4862077;29;20040;-75
2021/04/23 03:21:47;;;;;;;8.35;5.13;;;3.40;99.90;;;;;;4861372;29;20136;-75
2021/04/23 03:24:13;;;;;;;8.15;5.13;;;3.50;99.90;;;;;;4861672;29;20113;-75
2021/04/23 03:26:44;;;;;;;5.60;5.03;;;3.40;99.90;;;;;;4861751;29;20069;-75
2021/04/23 03:29:12;;;;;;;7.40;5.28;;;3.50;99.90;;;;;;4862129;29;20049;-75
2021/04/23 03:31:38;;;;;;;8.13;5.55;;;3.50;99.90;;;;;;4861811;29;20517;-75
2021/04/23 03:34:05;;;;;;;6.38;5.28;;;3.30;99.90;;;;;;4861766;29;20520;-75
2021/04/23 03:36:31;;;;;;;6.80;5.00;;;3.20;99.90;;;;;;4861616;29;20093;-76
2021/04/23 03:38:57;;;;;;;5.45;4.93;;;3.30;99.90;;;;;;4861562;29;20053;-76
2021/04/23 03:41:31;;;;;;;5.55;4.78;;;3.40;99.90;;;;;;4861606;29;20049;-76
2021/04/23 03:43:57;;;;;;;6.43;4.53;;;3.30;99.90;;;;;;4861803;29;20046;-76
2021/04/23 03:46:24;;;;;;;6.95;5.60;;;3.20;99.90;;;;;;4861862;29;20045;-75
2021/04/23 03:48:50;;;;;;;6.00;5.38;;;3.30;99.90;;;;;;4861734;29;20073;-76
2021/04/23 03:51:18;;;;;;;6.75;5.32;;;3.20;99.90;;;;;;4861621;29;20517;-76
2021/04/23 03:53:46;;;;;;;5.57;4.85;;;3.20;99.90;;;;;;4861468;29;20573;-75
2021/04/23 03:56:12;;;;;;;8.68;5.47;;;3.20;99.90;;;;;;4861514;29;20080;-76
2021/04/23 03:58:39;;;;;;;6.22;5.50;;;3.30;99.90;;;;;;4861415;29;20105;-76
2021/04/23 04:01:12;;;;;;;6.28;4.93;;;3.40;99.90;;;;;;4861166;29;20058;-76
2021/04/23 04:03:39;;;;;;;8.18;5.00;;;3.40;99.90;;;;;;4864610;29;20033;-76
2021/04/23 04:06:06;;;;;;;6.13;4.70;;;3.30;99.90;;;;;;4865061;29;20048;-76
2021/04/23 04:08:32;;;;;;;7.18;4.95;;;3.20;99.90;;;;;;4864738;29;20045;-76
2021/04/23 04:10:59;;;;;;;6.90;5.15;;;3.20;99.90;;;;;;4864678;29;20052;-76
2021/04/23 04:13:24;;;;;;;7.47;5.30;;;3.30;99.90;;;;;;4864458;29;20574;-76
2021/04/23 04:15:50;;;;;;;8.35;5.28;;;3.20;99.90;;;;;;4864622;29;20041;-76
2021/04/23 04:18:17;;;;;;;7.43;5.32;;;3.20;99.90;;;;;;4864564;29;20050;-76
2021/04/23 04:20:46;;;;;;;7.70;5.35;;;3.20;99.90;;;;;;4864804;29;20121;-76
2021/04/23 04:23:15;;;;;;;8.40;5.07;;;3.10;99.90;;;;;;4864547;29;20498;-76
2021/04/23 04:25:43;;;;;;;4.40;4.00;;;3.10;99.90;;;;;;4864486;29;20105;-76
2021/04/23 04:28:10;;;;;;;6.35;5.05;;;3.10;99.90;;;;;;4864426;29;20498;-76
2021/04/23 04:30:37;;;;;;;5.53;4.85;;;3.10;99.90;;;;;;4864849;29;20049;-76
2021/04/23 04:33:05;;;;;;;6.28;4.53;;;3.20;99.90;;;;;;4864338;29;20501;-76
2021/04/23 04:35:31;;;;;;;7.97;5.18;;;3.10;99.90;;;;;;4864037;29;20112;-75
2021/04/23 04:37:58;;;;;;;5.47;4.50;;;3.20;99.90;;;;;;4864192;29;20045;-75
2021/04/23 04:40:25;;;;;;;6.85;4.80;;;3.10;99.90;;;;;;4864464;29;20037;-75
2021/04/23 04:42:52;;;;;;;6.55;4.88;;;3.00;99.90;;;;;;4863866;29;20526;-75
2021/04/23 04:45:21;;;;;;;5.85;4.55;;;2.90;99.90;;;;;;4864015;29;20136;-75
2021/04/23 04:47:47;;;;;;;5.40;4.82;;;3.00;99.90;;;;;;4864214;29;20133;-75
2021/04/23 04:50:27;;;;;;;5.75;4.47;;;3.10;99.90;;;;;;4864331;29;20512;-75
2021/04/23 04:52:54;;;;;;;9.75;6.82;;;2.90;99.90;;;;;;4863702;29;20037;-75
2021/04/23 04:55:23;;;;;;;7.40;5.43;;;2.90;99.90;;;;;;4863968;29;20056;-75
2021/04/23 04:57:49;;;;;;;7.18;5.72;;;3.00;99.90;;;;;;4863855;29;20494;-76
2021/04/23 05:00:15;;;;;;;8.02;5.88;;;3.10;99.90;;;;;;4863507;29;20125;-75
2021/04/23 05:02:41;;;;;;;6.85;5.30;;;2.90;99.90;;;;;;4863874;29;20068;-76
2021/04/23 05:05:07;;;;;;;9.43;4.82;;;2.90;99.90;;;;;;4863524;29;20490;-76
2021/04/23 05:07:33;;;;;;;10.52;6.93;;;3.00;99.90;;;;;;4863618;29;20048;-76
2021/04/23 05:10:00;;;;;;;10.75;6.28;;;3.10;99.90;;;;;;4863179;29;20041;-75
2021/04/23 05:12:27;;;;;;;5.68;4.07;;;3.10;99.90;;;;;;4863324;29;20045;-76
2021/04/23 05:14:52;;;;;;;6.18;4.65;;;3.20;99.90;;;;;;4862783;29;20038;-75
2021/04/23 05:17:18;;;;;;;6.63;5.22;;;3.30;99.90;;;;;;4863195;29;20047;-75
2021/04/23 05:19:44;;;;;;;18.52;11.02;;;3.30;99.90;;;;;;4863599;29;20072;-75
2021/04/23 05:22:10;;;;;;;11.30;6.32;;;3.30;99.90;;;;;;4863409;29;20065;-76
2021/04/23 05:24:36;;;;;;;15.90;9.48;;;3.40;99.90;;;;;;4863080;29;20049;-76
2021/04/23 05:27:02;;;;;;;6.20;5.03;;;3.50;99.90;;;;;;4863085;29;20045;-75
2021/04/23 05:29:28;;;;;;;7.97;5.22;;;3.30;99.90;;;;;;4863230;29;20042;-75
2021/04/23 05:31:54;;;;;;;5.55;5.03;;;3.50;99.90;;;;;;4863293;29;20053;-75
2021/04/23 05:34:19;;;;;;;5.78;4.57;;;4.50;99.90;;;;;;4863502;29;20073;-76
2021/04/23 05:36:46;;;;;;;6.18;3.88;;;5.50;99.90;;;;;;4863225;29;20498;-76
2021/04/23 05:39:12;;;;;;;4.95;3.47;;;6.40;99.90;;;;;;4862825;29;20128;-75
2021/04/23 05:41:39;;;;;;;3.70;3.40;;;7.50;99.90;;;;;;4863034;29;20041;-76
2021/04/23 05:44:07;;;;;;;3.63;3.17;;;7.20;99.90;;;;;;4862622;29;20098;-76
2021/04/23 05:46:34;;;;;;;5.13;3.47;;;8.60;99.90;;;;;;4862661;29;20038;-76
2021/04/23 05:48:59;;;;;;;3.72;3.38;;;9.30;99.70;;;;;;4863214;29;20045;-76
2021/04/23 05:51:25;;;;;;;3.65;3.13;;;10.00;99.50;;;;;;4862976;29;20566;-76
2021/04/23 05:53:51;;;;;;;4.80;2.83;;;11.60;93.50;;;;;;4863079;29;20102;-76
2021/04/23 05:56:17;;;;;;;4.47;2.88;;;10.90;87.00;;;;;;4862946;29;20120;-75
2021/04/23 05:58:43;;;;;;;3.13;2.72;;;12.80;78.70;;;;;;4862505;29;20041;-76
2021/04/23 06:01:08;;;;;;;3.95;2.60;;;13.50;72.80;;;;;;4862810;29;20049;-76
2021/04/23 06:03:34;;;;;;;4.65;2.70;;;13.00;68.70;;;;;;4862787;29;20074;-76
2021/04/23 06:06:00;;;;;;;3.25;2.58;;;14.20;66.90;;;;;;4862933;29;20515;-76
2021/04/23 06:08:26;;;;;;;3.47;2.95;;;15.20;63.40;;;;;;4863058;29;20037;-75
2021/04/23 06:10:51;;;;;;;3.50;2.90;;;14.60;59.10;;;;;;4862953;29;20105;-76
2021/04/23 06:13:18;;;;;;;4.15;3.13;;;15.50;58.90;;;;;;4862926;29;20061;-76
2021/04/23 06:15:44;;;;;;;4.70;2.75;;;14.80;56.80;;;;;;4862436;29;20111;-76
2021/04/23 06:18:13;;;;;;;2.60;2.40;;;15.50;57.00;;;;;;4862853;29;20089;-76
2021/04/23 06:20:41;;;;;;;3.92;2.95;;;16.50;55.10;;;;;;4862763;29;20049;-76
2021/04/23 06:23:08;;;;;;;3.03;2.58;;;14.80;52.90;;;;;;4862473;29;20045;-76
2021/04/23 06:25:34;;;;;;;3.08;2.67;;;16.20;51.10;;;;;;4862370;29;20494;-76
2021/04/23 06:28:03;;;;;;;3.60;2.63;;;17.70;49.80;;;;;;4862653;29;20506;-75
2021/04/23 06:30:31;;;;;;;3.80;2.72;;;18.20;47.70;;;;;;4862246;29;20141;-76
2021/04/23 06:33:00;;;;;;;3.67;2.42;;;16.00;48.00;;;;;;4862433;29;20045;-76
2021/04/23 06:35:29;;;;;;;3.40;2.45;;;15.90;50.20;;;;;;4862164;29;20093;-75
2021/04/23 06:37:56;;;;;;;3.50;2.53;;;14.90;50.40;;;;;;4862236;29;20039;-76
2021/04/23 06:40:22;;;;;;;3.45;2.72;;;15.00;50.80;;;;;;4862604;29;20037;-76
2021/04/23 06:42:48;;;;;;;2.65;2.45;;;17.50;49.80;;;;;;4862355;29;20045;-76
2021/04/23 06:45:20;;;;;;;3.60;2.45;;;17.90;46.90;;;;;;4862322;29;20052;-76
2021/04/23 06:47:46;;;;;;;5.25;2.88;;;19.10;44.60;;;;;;4862553;29;20120;-75
2021/04/23 06:50:14;;;;;;;3.35;3.05;;;18.90;44.10;;;;;;4862495;29;20128;-76
2021/04/23 06:52:41;;;;;;;6.13;3.22;;;19.40;42.50;;;;;;4862367;29;20052;-76
2021/04/23 06:55:10;;;;;;;4.65;3.00;;;19.70;42.10;;;;;;4862658;29;20048;-76
2021/04/23 06:57:36;;;;;;;3.08;2.78;;;17.60;45.30;;;;;;4862339;29;20049;-76
2021/04/23 07:00:28;;;;;;;3.97;3.03;;;17.80;48.80;;;;;;4862252;29;20041;-76
2021/04/23 07:02:56;;;;;;;4.88;3.53;;;15.20;56.90;;;;;;4862080;29;20072;-76
2021/04/23 07:05:22;;;;;;;5.28;4.78;;;13.20;68.00;;;;;;4862085;29;20105;-76
2021/04/23 07:07:48;;;;;;;4.45;4.00;;;11.90;75.80;;;;;;4861872;29;20045;-76
2021/04/23 07:10:17;;;;;;;6.00;4.40;;;11.70;80.90;;;;;;4862480;29;20045;-76
2021/04/23 07:12:44;;;;;;;4.47;4.07;;;11.20;87.50;;;;;;4861981;29;20050;-76
2021/04/23 07:15:14;;;;;;;5.10;4.15;;;10.80;90.50;;;;;;4862154;29;20048;-76
2021/04/23 07:17:40;;;;;;;5.20;4.70;;;10.40;93.10;;;;;;4861873;29;20037;-76
2021/04/23 07:20:06;;;;;;;5.10;4.60;;;10.30;95.20;;;;;;4862107;29;20120;-76
2021/04/23 07:22:32;;;;;;;5.15;3.78;;;10.10;96.80;;;;;;4862023;29;20082;-76
2021/04/23 07:24:58;;;;;;;5.57;3.95;;;9.90;97.30;;;;;;4862117;29;20041;-76
2021/04/23 07:27:23;;;;;;;6.97;4.32;;;9.80;98.90;;;;;;4862022;29;20045;-76
2021/04/23 07:29:49;;;;;;;5.57;3.63;;;9.90;99.50;;;;;;4862074;29;20056;-76
2021/04/23 07:32:15;;;;;;;4.35;3.60;;;10.00;99.30;;;;;;4862090;29;20056;-76
2021/04/23 07:34:41;;;;;;;3.97;3.63;;;10.00;98.70;;;;;;4861940;29;20049;-76
2021/04/23 07:37:07;;;;;;;3.65;3.25;;;10.20;99.30;;;;;;4863582;29;20049;-75
2021/04/23 07:39:33;;;;;;;3.42;2.83;;;10.30;99.90;;;;;;4865247;29;20046;-75
2021/04/23 07:42:00;;;;;;;4.25;3.67;;;10.40;99.30;;;;;;4865135;29;20055;-75
2021/04/23 07:44:27;;;;;;;5.18;3.70;;;10.50;99.30;;;;;;4865209;29;20070;-75
2021/04/23 07:46:54;;;;;;;4.65;3.38;;;10.60;99.40;;;;;;4865409;29;20485;-75
2021/04/23 07:49:20;;;;;;;3.70;2.80;;;10.70;99.40;;;;;;4864897;29;20443;-75
2021/04/23 07:51:46;;;;;;;4.32;2.90;;;10.80;99.60;;;;;;4865275;29;20056;-75
2021/04/23 07:54:14;;;;;;;10.73;2.97;;;10.90;99.90;;;;;;4865189;29;20549;-76
2021/04/23 07:56:40;;;;;;;9.90;4.05;;;11.10;99.40;;;;;;4865224;29;20046;-75
2021/04/23 07:59:07;;;;;;;7.70;3.20;;;11.20;99.50;;;;;;4864776;29;20068;-75
2021/04/23 08:01:33;;;;;;;10.80;2.88;;;11.20;99.70;;;;;;4864359;29;20053;-75
2021/04/23 08:03:59;;;;;;;6.68;3.20;;;11.30;99.90;;;;;;4864832;29;20041;-75
2021/04/23 08:06:25;;;;;;;9.65;3.72;;;11.40;99.90;;;;;;4864750;29;20171;-75
2021/04/23 08:08:51;;;;;;;11.10;2.90;;;11.60;99.90;;;;;;4864576;29;20533;-75
2021/04/23 08:11:17;;;;;;;7.22;2.80;;;11.90;99.90;;;;;;4864670;29;20045;-75
2021/04/23 08:13:43;;;;;;;7.38;2.47;;;12.10;99.60;;;;;;4864489;29;20072;-75
2021/04/23 08:16:09;;;;;;;8.60;3.05;;;12.50;95.10;;;;;;4864322;29;20041;-75
2021/04/23 08:18:35;;;;;;;7.55;2.65;;;12.70;94.20;;;;;;4863111;29;20195;-75
2021/04/23 08:21:03;;;;;;;5.82;2.20;;;12.80;95.50;;;;;;4864040;29;20053;-75
2021/04/23 08:23:29;;;;;;;3.95;2.30;;;12.90;92.50;;;;;;4864101;29;20041;-75
2021/04/23 08:25:58;;;;;;;4.70;2.28;;;12.80;93.40;;;;;;4864341;29;20037;-74
2021/04/23 08:28:24;;;;;;;4.72;2.15;;;13.00;91.70;;;;;;4863754;29;20536;-75
2021/04/23 08:30:51;;;;;;;3.15;2.15;;;12.90;92.90;;;;;;4863994;29;20439;-74
2021/04/23 08:33:17;;;;;;;4.38;2.40;;;13.20;88.90;;;;;;4862653;29;20639;-74
2021/04/23 08:35:43;;;;;;;2.55;1.70;;;13.40;86.80;;;;;;4862549;29;20576;-75
2021/04/23 08:38:09;;;;;;;2.20;2.00;;;13.60;85.30;;;;;;4862162;29;20137;-75
2021/04/23 08:40:36;;;;;;;3.72;2.33;;;13.60;86.90;;;;;;4861292;29;20048;-75
2021/04/23 08:43:02;;;;;;;2.20;2.00;;;13.80;83.00;;;;;;4862529;29;20160;-74
2021/04/23 08:45:28;;;;;;;2.25;2.05;;;13.70;84.10;;;;;;4857224;29;20541;-74
2021/04/23 08:47:54;;;;;;;2.30;2.10;;;13.70;83.70;;;;;;4858818;29;20045;-74
2021/04/23 08:50:25;;;;;;;5.40;1.83;;;13.80;80.60;;;;;;4861975;29;20072;-73
2021/04/23 08:52:53;;;;;;;6.78;1.90;;;14.00;80.90;;;;;;4845763;29;20787;-74
2021/04/23 08:55:24;;;;;;;2.58;2.28;;;14.10;79.20;;;;;;4855500;29;20034;-74
2021/04/23 08:57:51;;;;;;;2.58;1.98;;;14.20;80.40;;;;;;4853049;29;20045;-74
2021/04/23 09:00:18;;;;;;;2.25;2.05;;;14.00;79.50;;;;;;4862495;29;20089;-75
2021/04/23 09:02:44;;;;;;;2.33;2.13;;;14.20;80.10;;;;;;4862194;29;20627;-74
2021/04/23 09:05:12;;;;;;;2.95;2.60;;;14.30;79.10;;;;;;4864038;29;20140;-74
2021/04/23 09:07:38;;;;;;;5.97;2.40;;;14.20;79.60;;;;;;4863364;29;20516;-74
2021/04/23 09:10:12;;;;;;;4.22;2.25;;;14.50;81.90;;;;;;4862491;29;20124;-74
2021/04/23 09:12:39;;;;;;;2.67;2.47;;;14.60;77.90;;;;;;4862827;29;20049;-74
2021/04/23 09:15:23;;;;;;;3.05;2.30;;;14.50;77.30;;;;;;4863014;29;20511;-74
2021/04/23 09:18:07;;;;;;;4.50;3.20;;;14.50;80.80;;;;;;4863329;29;20057;-74
2021/04/23 09:20:34;;;;;;;5.82;3.25;;;14.90;75.10;;;;;;4862920;29;20038;-75
2021/04/23 09:23:07;;;;;;;4.68;3.20;;;15.00;75.50;;;;;;4862349;29;20517;-75
2021/04/23 09:25:45;;;;;;;3.33;2.92;;;15.20;75.70;;;;;;4866688;29;20049;-74
2021/04/23 09:28:12;;;;;;;2.95;2.63;;;15.20;73.30;;;;;;4867957;29;20048;-74
2021/04/23 09:30:38;;;;;;;4.93;2.92;;;15.10;74.70;;;;;;4863218;29;20505;-74
2021/04/23 09:33:04;;;;;;;4.00;3.05;;;15.10;74.70;;;;;;4863163;29;20144;-74
2021/04/23 09:35:36;;;;;;;8.85;3.10;;;15.30;74.70;;;;;;4862909;29;20124;-74
2021/04/23 09:38:02;;;;;;;3.53;3.22;;;15.40;72.00;;;;;;4863238;29;20075;-74
2021/04/23 09:40:31;;;;;;;5.18;3.40;;;15.50;71.20;;;;;;4863217;29;20167;-73
2021/04/23 09:43:00;;;;;;;3.47;3.17;;;15.60;71.50;;;;;;4862570;29;20033;-74
2021/04/23 09:45:32;;;;;;;7.53;3.15;;;15.60;71.10;;;;;;4862634;29;20041;-74
2021/04/23 09:47:58;;;;;;;10.27;5.00;;;15.40;72.00;;;;;;4861503;29;20037;-74
2021/04/23 09:50:36;;;;;;;10.75;3.97;;;15.70;70.90;;;;;;4861246;29;20055;-74
2021/04/23 09:53:02;;;;;;;4.13;3.72;;;15.70;71.00;;;;;;4862039;29;20568;-74
2021/04/23 09:55:33;;;;;;;7.70;5.65;;;15.60;68.70;;;;;;4860665;29;20045;-74
2021/04/23 09:58:07;;;;;;;8.20;5.30;;;15.70;69.20;;;;;;4860449;29;20080;-74
2021/04/23 10:00:41;;;;;;;10.43;3.92;;;15.80;69.90;;;;;;4859716;29;20065;-74
2021/04/23 10:03:07;;;;;;;5.43;3.55;;;15.90;69.30;;;;;;4861840;29;20045;-74
2021/04/23 10:05:37;;;;;;;4.28;3.63;;;15.80;69.30;;;;;;4862094;29;20053;-74
2021/04/23 10:08:06;;;;;;;6.57;3.83;;;15.90;69.30;;;;;;4862341;29;20111;-74
2021/04/23 10:10:33;;;;;;;8.85;3.40;;;15.90;69.90;;;;;;4862291;29;20049;-74
2021/04/23 10:13:06;;;;;;;9.32;3.70;;;16.30;67.90;;;;;;4862229;29;20036;-74
2021/04/23 10:15:34;;;;;;;6.60;4.18;;;16.20;67.20;;;;;;4861995;29;20045;-74
2021/04/23 10:18:07;;;;;;;8.85;4.03;;;16.20;68.50;;;;;;4862420;29;20033;-74
2021/04/23 10:20:40;;;;;;;6.53;3.83;;;16.10;68.10;;;;;;4860970;29;20071;-74
2021/04/23 10:23:08;;;;;;;8.57;4.00;;;16.00;67.70;;;;;;4860326;29;20053;-73
2021/04/23 10:25:34;;;;;;;5.60;3.72;;;16.10;68.70;;;;;;4862364;29;20050;-74
2021/04/23 10:28:03;;;;;;;5.57;3.53;;;16.30;67.00;;;;;;4861807;29;20073;-74
2021/04/23 10:30:34;;;;;;;7.80;4.13;;;16.30;66.90;;;;;;4862367;29;20049;-74
2021/04/23 10:33:03;;;;;;;6.30;3.40;;;16.40;67.90;;;;;;4854560;29;20382;-75
2021/04/23 10:35:30;;;;;;;7.95;3.97;;;16.30;65.80;;;;;;4861234;29;20068;-74
2021/04/23 10:38:15;;;;;;;5.68;4.18;;;16.40;66.00;;;;;;4860942;29;20124;-75
2021/04/23 10:40:43;;;;;;;7.18;4.03;;;16.50;65.70;;;;;;4857090;29;20122;-74
2021/04/23 10:43:15;;;;;;;5.28;3.63;;;16.40;65.80;;;;;;4859389;29;20041;-74
2021/04/23 10:46:14;;;;;;;5.00;3.92;;;16.20;68.40;;;;;;4859342;29;20111;-74
2021/04/23 10:48:42;;;;;;;8.80;4.85;;;16.10;66.40;;;;;;4861016;29;20124;-73
2021/04/23 10:51:22;;;;;;;10.13;4.13;;;16.30;68.60;;;;;;4860725;29;20532;-74
2021/04/23 10:53:50;;;;;;;8.23;4.40;;;16.50;68.20;;;;;;4860884;29;20093;-74
2021/04/23 10:56:37;;;;;;;6.00;5.13;;;16.60;66.60;;;;;;4861368;29;20042;-74
2021/04/23 10:59:43;;;;;;;10.13;3.67;;;16.60;64.60;;;;;;4861393;29;20052;-74
2021/04/23 11:02:14;;;;;;;7.32;3.72;;;16.70;64.90;;;;;;4850983;29;20552;-74
2021/04/23 11:04:57;;;;;;;7.13;3.80;;;16.70;65.70;;;;;;4861043;29;20132;-74
2021/04/23 11:07:23;;;;;;;6.97;3.90;;;16.60;66.70;;;;;;4860763;29;20068;-74
2021/04/23 11:09:59;;;;;;;5.18;3.40;;;16.50;64.70;;;;;;4860415;29;20041;-74
2021/04/23 11:12:26;;;;;;;4.10;3.22;;;16.60;66.60;;;;;;4863418;29;20505;-74
2021/04/23 11:15:09;;;;;;;5.32;3.10;;;16.80;63.20;;;;;;4863768;29;20046;-73
2021/04/23 11:17:35;;;;;;;6.95;4.20;;;16.80;64.70;;;;;;4865363;29;20037;-73
2021/04/23 11:20:25;;;;;;;6.15;3.85;;;17.00;67.70;;;;;;4864394;29;20398;-74
2021/04/23 11:22:53;;;;;;;8.90;4.05;;;16.90;63.10;;;;;;4865219;29;20482;-74
2021/04/23 11:25:20;;;;;;;7.32;3.88;;;17.00;64.50;;;;;;4865212;29;20037;-73
2021/04/23 11:28:07;;;;;;;6.10;3.58;;;17.00;61.40;;;;;;4865047;29;20041;-73
2021/04/23 11:31:04;;;;;;;11.23;3.83;;;17.00;62.40;;;;;;4865381;29;20045;-74
2021/04/23 11:33:55;;;;;;;4.78;3.47;;;17.10;63.30;;;;;;4864932;29;20572;-74
2021/04/23 11:36:25;;;;;;;;;;;17.10;62.60;;;;;;4865234;29;20101;-74
2021/04/23 11:39:00;;;;;;;5.05;3.50;;;17.20;61.20;;;;;;4865363;29;19912;-74
2021/04/23 11:41:27;;;;;;;8.73;5.75;;;17.30;61.00;;;;;;4865430;29;20057;-76
2021/04/23 11:43:52;;;;;;;15.20;6.95;;;17.20;60.80;;;;;;4864796;29;20094;-78
2021/04/23 11:46:18;;;;;;;11.73;5.65;;;17.20;64.20;;;;;;4865120;29;20587;-77
2021/04/23 11:48:49;;;;;;;8.07;5.88;;;17.30;62.30;;;;;;4865532;29;20045;-77
2021/04/23 11:51:15;;;;;;;9.43;5.97;;;17.20;65.10;;;;;;4863622;29;20052;-78
2021/04/23 11:53:47;;;;;;;15.52;12.73;;;17.30;61.10;;;;;;4863734;29;20037;-76
2021/04/23 11:56:13;;;;;;;9.27;5.03;;;17.40;60.60;;;;;;4864853;29;20490;-77
2021/04/23 11:58:41;;;;;;;8.75;5.60;;;17.30;61.00;;;;;;4864676;29;20049;-76
2021/04/23 12:01:06;;;;;;;10.60;8.52;;;17.30;61.20;;;;;;4864802;29;20086;-78
2021/04/23 12:03:32;;;;;;;47.40;34.90;;;17.20;62.80;;;;;;4861692;29;20041;-79
2021/04/23 12:05:58;;;;;;;23.60;15.63;;;17.40;60.90;;;;;;4864284;29;20064;-77
2021/04/23 12:08:27;;;;;;;11.18;5.45;;;17.20;62.40;;;;;;4864696;29;20134;-77
2021/04/23 12:11:03;;;;;;;18.20;5.75;;;17.20;62.30;;;;;;4864636;29;20124;-79
2021/04/23 12:13:32;;;;;;;11.98;4.28;;;17.40;63.50;;;;;;4863689;29;20525;-79
2021/04/23 12:16:01;;;;;;;12.48;4.35;;;17.60;61.70;;;;;;4862964;29;20128;-79
2021/04/23 12:18:29;;;;;;;10.93;4.40;;;17.70;62.10;;;;;;4864079;29;20046;-77
2021/04/23 12:20:57;;;;;;;8.70;3.70;;;17.70;60.30;;;;;;4864068;29;20076;-77
2021/04/23 12:23:28;;;;;;;5.32;4.20;;;17.70;61.60;;;;;;4852026;29;20106;-77
2021/04/23 12:26:03;;;;;;;6.90;3.67;;;17.80;59.80;;;;;;4862963;29;20041;-77
2021/04/23 12:28:36;;;;;;;4.85;4.32;;;17.70;64.10;;;;;;4863861;29;20048;-77
2021/04/23 12:31:24;;;;;;;4.22;3.85;;;17.90;61.30;;;;;;4854971;29;20053;-78
2021/04/23 12:33:57;;;;;;;5.22;4.53;;;17.40;61.30;;;;;;4861048;29;20037;-77
2021/04/23 12:36:30;;;;;;;6.28;3.70;;;17.70;62.30;;;;;;4862915;29;20045;-77
2021/04/23 12:39:04;;;;;;;4.65;3.17;;;17.70;59.30;;;;;;4862125;29;20494;-77
2021/04/23 12:41:33;;;;;;;5.10;3.58;;;17.80;59.30;;;;;;4863846;29;20068;-77
2021/04/23 12:44:12;;;;;;;5.03;3.67;;;17.90;59.10;;;;;;4862848;29;20033;-78
2021/04/23 12:46:41;;;;;;;9.15;6.00;;;17.70;61.00;;;;;;4847813;29;20037;-77
2021/04/23 12:49:32;;;;;;;11.25;6.72;;;17.70;62.00;;;;;;4864452;29;20044;-77
2021/04/23 12:52:15;;;;;;;27.90;19.05;;;17.80;62.70;;;;;;4847217;29;20053;-77
2021/04/23 12:54:49;;;;;;;14.40;11.10;;;17.90;61.10;;;;;;4864242;29;20044;-77
2021/04/23 12:57:30;;;;;;;21.88;11.88;;;17.80;60.70;;;;;;4863766;29;20450;-77
2021/04/23 13:00:09;;;;;;;;;;;18.10;61.10;;;;;;4862291;29;20037;-78